sensor_id;sensor_type;location;lat;lon;timestamp;P1;durP1;ratioP1;P2;durP2;ratioP2
13114;SDS011;6623;52.120;8.660;2023-07-13T00:01:28;1.98;;;1.10;;
13114;SDS011;6623;52.120;8.660;2023-07-13T00:03:54;2.10;;;1.00;;
13114;SDS011;6623;52.120;8.660;2023-07-13T00:06:21;2.05;;;0.90;;
13114;SDS011;6623;52.120;8.660;2023-07-13T00:08:47;2.13;;;1.00;;
13114;SDS011;6623;52.120;8.660;2023-07-13T00:11:13;1.60;;;0.80;;
13114;SDS011;6623;52.120;8.660;2023-07-13T00:13:40;1.63;;;1.00;;
13114;SDS011;6623;52.120;8.660;2023-07-13T00:16:07;1.33;;;0.90;;
13114;SDS011;6623;52.120;8.660;2023-07-13T00:18:34;1.27;;;0.93;;
13114;SDS011;6623;52.120;8.660;2023-07-13T00:21:00;1.88;;;0.93;;
13114;SDS011;6623;52.120;8.660;2023-07-13T00:23:33;1.92;;;1.00;;
13114;SDS011;6623;52.120;8.660;2023-07-13T00:26:00;1.15;;;0.70;;
13114;SDS011;6623;52.120;8.660;2023-07-13T00:28:27;2.15;;;1.05;;
13114;SDS011;6623;52.120;8.660;2023-07-13T00:30:52;1.83;;;1.08;;
13114;SDS011;6623;52.120;8.660;2023-07-13T00:33:19;1.48;;;0.90;;
13114;SDS011;6623;52.120;8.660;2023-07-13T00:35:44;2.63;;;0.90;;
13114;SDS011;6623;52.120;8.660;2023-07-13T00:38:10;1.27;;;0.80;;
13114;SDS011;6623;52.120;8.660;2023-07-13T00:40:35;1.23;;;0.90;;
13114;SDS011;6623;52.120;8.660;2023-07-13T00:43:01;2.35;;;1.10;;
13114;SDS011;6623;52.120;8.660;2023-07-13T00:47:54;2.13;;;1.00;;
13114;SDS011;6623;52.120;8.660;2023-07-13T00:50:21;1.48;;;0.90;;
13114;SDS011;6623;52.120;8.660;2023-07-13T00:52:48;1.95;;;0.98;;
13114;SDS011;6623;52.120;8.660;2023-07-13T00:55:18;1.55;;;0.80;;
13114;SDS011;6623;52.120;8.660;2023-07-13T00:57:46;1.10;;;0.77;;
13114;SDS011;6623;52.120;8.660;2023-07-13T01:00:12;1.63;;;1.00;;
13114;SDS011;6623;52.120;8.660;2023-07-13T01:02:39;1.85;;;0.85;;
13114;SDS011;6623;52.120;8.660;2023-07-13T01:05:11;2.17;;;0.88;;
13114;SDS011;6623;52.120;8.660;2023-07-13T01:07:38;2.35;;;1.10;;
13114;SDS011;6623;52.120;8.660;2023-07-13T01:10:06;2.92;;;1.10;;
13114;SDS011;6623;52.120;8.660;2023-07-13T01:12:32;1.73;;;0.90;;
13114;SDS011;6623;52.120;8.660;2023-07-13T01:14:58;2.08;;;0.90;;
13114;SDS011;6623;52.120;8.660;2023-07-13T01:17:25;2.85;;;1.05;;
13114;SDS011;6623;52.120;8.660;2023-07-13T01:19:51;2.70;;;0.90;;
13114;SDS011;6623;52.120;8.660;2023-07-13T01:22:17;2.50;;;1.10;;
13114;SDS011;6623;52.120;8.660;2023-07-13T01:24:44;1.90;;;1.00;;
13114;SDS011;6623;52.120;8.660;2023-07-13T01:27:14;1.08;;;0.77;;
13114;SDS011;6623;52.120;8.660;2023-07-13T01:29:43;2.17;;;0.90;;
13114;SDS011;6623;52.120;8.660;2023-07-13T01:32:13;1.80;;;0.90;;
13114;SDS011;6623;52.120;8.660;2023-07-13T01:34:49;1.98;;;0.93;;
13114;SDS011;6623;52.120;8.660;2023-07-13T01:37:15;2.45;;;0.80;;
13114;SDS011;6623;52.120;8.660;2023-07-13T01:39:41;1.55;;;0.90;;
13114;SDS011;6623;52.120;8.660;2023-07-13T01:42:07;2.42;;;0.80;;
13114;SDS011;6623;52.120;8.660;2023-07-13T01:44:32;1.98;;;0.93;;
13114;SDS011;6623;52.120;8.660;2023-07-13T01:46:58;1.58;;;0.82;;
13114;SDS011;6623;52.120;8.660;2023-07-13T01:49:24;1.98;;;0.85;;
13114;SDS011;6623;52.120;8.660;2023-07-13T01:51:49;1.63;;;0.90;;
13114;SDS011;6623;52.120;8.660;2023-07-13T01:54:15;1.58;;;0.90;;
13114;SDS011;6623;52.120;8.660;2023-07-13T01:56:40;1.35;;;0.80;;
13114;SDS011;6623;52.120;8.660;2023-07-13T01:59:07;2.40;;;1.13;;
13114;SDS011;6623;52.120;8.660;2023-07-13T02:01:33;1.83;;;1.00;;
13114;SDS011;6623;52.120;8.660;2023-07-13T02:03:58;2.33;;;0.98;;
13114;SDS011;6623;52.120;8.660;2023-07-13T02:06:24;0.98;;;0.85;;
13114;SDS011;6623;52.120;8.660;2023-07-13T02:08:49;1.38;;;0.90;;
13114;SDS011;6623;52.120;8.660;2023-07-13T02:11:15;2.13;;;1.10;;
13114;SDS011;6623;52.120;8.660;2023-07-13T02:13:40;1.73;;;0.80;;
13114;SDS011;6623;52.120;8.660;2023-07-13T02:16:06;2.33;;;0.90;;
13114;SDS011;6623;52.120;8.660;2023-07-13T02:18:31;1.88;;;0.98;;
13114;SDS011;6623;52.120;8.660;2023-07-13T02:20:57;1.75;;;1.00;;
13114;SDS011;6623;52.120;8.660;2023-07-13T02:23:22;1.52;;;1.00;;
13114;SDS011;6623;52.120;8.660;2023-07-13T02:25:48;1.60;;;0.80;;
13114;SDS011;6623;52.120;8.660;2023-07-13T02:28:14;1.73;;;0.90;;
13114;SDS011;6623;52.120;8.660;2023-07-13T02:30:39;2.55;;;1.10;;
13114;SDS011;6623;52.120;8.660;2023-07-13T02:33:05;1.40;;;0.80;;
13114;SDS011;6623;52.120;8.660;2023-07-13T02:35:31;1.80;;;0.80;;
13114;SDS011;6623;52.120;8.660;2023-07-13T02:37:56;2.75;;;1.15;;
13114;SDS011;6623;52.120;8.660;2023-07-13T02:40:22;1.30;;;0.90;;
13114;SDS011;6623;52.120;8.660;2023-07-13T02:42:48;2.92;;;0.93;;
13114;SDS011;6623;52.120;8.660;2023-07-13T02:45:13;2.38;;;1.00;;
13114;SDS011;6623;52.120;8.660;2023-07-13T02:47:40;1.85;;;0.93;;
13114;SDS011;6623;52.120;8.660;2023-07-13T02:50:06;2.15;;;1.00;;
13114;SDS011;6623;52.120;8.660;2023-07-13T02:52:32;1.40;;;0.70;;
13114;SDS011;6623;52.120;8.660;2023-07-13T02:54:58;1.45;;;0.80;;
13114;SDS011;6623;52.120;8.660;2023-07-13T02:57:23;2.25;;;0.98;;
13114;SDS011;6623;52.120;8.660;2023-07-13T02:59:49;1.15;;;0.70;;
13114;SDS011;6623;52.120;8.660;2023-07-13T03:02:14;1.92;;;0.77;;
13114;SDS011;6623;52.120;8.660;2023-07-13T03:04:40;2.40;;;1.00;;
13114;SDS011;6623;52.120;8.660;2023-07-13T03:07:06;2.05;;;1.00;;
13114;SDS011;6623;52.120;8.660;2023-07-13T03:09:34;1.73;;;0.77;;
13114;SDS011;6623;52.120;8.660;2023-07-13T03:12:01;1.58;;;0.85;;
13114;SDS011;6623;52.120;8.660;2023-07-13T03:14:26;2.15;;;0.90;;
13114;SDS011;6623;52.120;8.660;2023-07-13T03:16:52;1.63;;;1.00;;
13114;SDS011;6623;52.120;8.660;2023-07-13T03:19:18;1.20;;;0.70;;
13114;SDS011;6623;52.120;8.660;2023-07-13T03:21:44;1.13;;;0.80;;
13114;SDS011;6623;52.120;8.660;2023-07-13T03:24:10;0.90;;;0.70;;
13114;SDS011;6623;52.120;8.660;2023-07-13T03:26:36;1.63;;;0.93;;
13114;SDS011;6623;52.120;8.660;2023-07-13T03:29:01;2.00;;;1.00;;
13114;SDS011;6623;52.120;8.660;2023-07-13T03:31:28;2.47;;;1.00;;
13114;SDS011;6623;52.120;8.660;2023-07-13T03:33:55;1.55;;;0.77;;
13114;SDS011;6623;52.120;8.660;2023-07-13T03:36:23;2.60;;;1.10;;
13114;SDS011;6623;52.120;8.660;2023-07-13T03:38:51;2.15;;;1.00;;
13114;SDS011;6623;52.120;8.660;2023-07-13T03:41:19;1.35;;;0.93;;
13114;SDS011;6623;52.120;8.660;2023-07-13T03:43:45;2.78;;;1.10;;
13114;SDS011;6623;52.120;8.660;2023-07-13T03:46:12;1.00;;;0.80;;
13114;SDS011;6623;52.120;8.660;2023-07-13T03:48:38;2.33;;;1.00;;
13114;SDS011;6623;52.120;8.660;2023-07-13T03:51:05;1.63;;;0.90;;
13114;SDS011;6623;52.120;8.660;2023-07-13T03:53:31;0.80;;;0.77;;
13114;SDS011;6623;52.120;8.660;2023-07-13T03:55:56;1.85;;;0.95;;
13114;SDS011;6623;52.120;8.660;2023-07-13T03:58:23;1.85;;;0.90;;
13114;SDS011;6623;52.120;8.660;2023-07-13T04:00:55;2.90;;;0.90;;
13114;SDS011;6623;52.120;8.660;2023-07-13T04:03:22;2.35;;;1.00;;
13114;SDS011;6623;52.120;8.660;2023-07-13T04:05:48;1.95;;;0.90;;
13114;SDS011;6623;52.120;8.660;2023-07-13T04:08:14;2.72;;;0.90;;
13114;SDS011;6623;52.120;8.660;2023-07-13T04:10:40;2.13;;;1.05;;
13114;SDS011;6623;52.120;8.660;2023-07-13T04:13:05;2.85;;;0.90;;
13114;SDS011;6623;52.120;8.660;2023-07-13T04:15:31;2.17;;;1.10;;
13114;SDS011;6623;52.120;8.660;2023-07-13T04:17:57;2.38;;;0.90;;
13114;SDS011;6623;52.120;8.660;2023-07-13T04:20:26;1.75;;;0.90;;
13114;SDS011;6623;52.120;8.660;2023-07-13T04:22:52;1.58;;;0.90;;
13114;SDS011;6623;52.120;8.660;2023-07-13T04:25:20;2.28;;;1.17;;
13114;SDS011;6623;52.120;8.660;2023-07-13T04:27:46;2.38;;;0.90;;
13114;SDS011;6623;52.120;8.660;2023-07-13T04:30:12;2.40;;;1.10;;
13114;SDS011;6623;52.120;8.660;2023-07-13T04:32:37;2.33;;;1.10;;
13114;SDS011;6623;52.120;8.660;2023-07-13T04:35:03;2.22;;;0.90;;
13114;SDS011;6623;52.120;8.660;2023-07-13T04:37:29;1.27;;;0.90;;
13114;SDS011;6623;52.120;8.660;2023-07-13T04:39:54;1.75;;;0.90;;
13114;SDS011;6623;52.120;8.660;2023-07-13T04:42:20;2.38;;;1.13;;
13114;SDS011;6623;52.120;8.660;2023-07-13T04:44:49;2.78;;;1.02;;
13114;SDS011;6623;52.120;8.660;2023-07-13T04:47:15;1.88;;;0.90;;
13114;SDS011;6623;52.120;8.660;2023-07-13T04:49:40;2.47;;;1.00;;
13114;SDS011;6623;52.120;8.660;2023-07-13T04:52:06;3.90;;;1.20;;
13114;SDS011;6623;52.120;8.660;2023-07-13T04:54:33;2.60;;;1.15;;
13114;SDS011;6623;52.120;8.660;2023-07-13T04:56:59;1.88;;;1.00;;
13114;SDS011;6623;52.120;8.660;2023-07-13T04:59:24;3.05;;;1.13;;
13114;SDS011;6623;52.120;8.660;2023-07-13T05:01:50;1.65;;;1.02;;
13114;SDS011;6623;52.120;8.660;2023-07-13T05:04:16;3.60;;;0.90;;
13114;SDS011;6623;52.120;8.660;2023-07-13T05:06:41;2.22;;;1.02;;
13114;SDS011;6623;52.120;8.660;2023-07-13T05:09:07;3.67;;;1.10;;
13114;SDS011;6623;52.120;8.660;2023-07-13T05:11:32;2.13;;;1.00;;
13114;SDS011;6623;52.120;8.660;2023-07-13T05:13:58;3.55;;;1.23;;
13114;SDS011;6623;52.120;8.660;2023-07-13T05:16:26;1.60;;;0.80;;
13114;SDS011;6623;52.120;8.660;2023-07-13T05:18:52;1.98;;;1.00;;
13114;SDS011;6623;52.120;8.660;2023-07-13T05:21:17;2.22;;;1.15;;
13114;SDS011;6623;52.120;8.660;2023-07-13T05:23:43;2.08;;;1.05;;
13114;SDS011;6623;52.120;8.660;2023-07-13T05:26:08;1.77;;;0.90;;
13114;SDS011;6623;52.120;8.660;2023-07-13T05:28:34;2.50;;;0.95;;
13114;SDS011;6623;52.120;8.660;2023-07-13T05:31:00;4.47;;;1.50;;
13114;SDS011;6623;52.120;8.660;2023-07-13T05:33:26;1.58;;;0.95;;
13114;SDS011;6623;52.120;8.660;2023-07-13T05:35:51;2.42;;;1.10;;
13114;SDS011;6623;52.120;8.660;2023-07-13T05:38:17;2.97;;;1.27;;
13114;SDS011;6623;52.120;8.660;2023-07-13T05:40:43;2.60;;;1.00;;
13114;SDS011;6623;52.120;8.660;2023-07-13T05:43:09;3.58;;;1.10;;
13114;SDS011;6623;52.120;8.660;2023-07-13T05:45:35;2.80;;;1.15;;
13114;SDS011;6623;52.120;8.660;2023-07-13T05:48:00;2.42;;;1.23;;
13114;SDS011;6623;52.120;8.660;2023-07-13T05:50:26;3.30;;;1.40;;
13114;SDS011;6623;52.120;8.660;2023-07-13T05:52:52;2.35;;;1.08;;
13114;SDS011;6623;52.120;8.660;2023-07-13T05:55:18;2.33;;;1.10;;
13114;SDS011;6623;52.120;8.660;2023-07-13T05:57:44;2.90;;;1.13;;
13114;SDS011;6623;52.120;8.660;2023-07-13T06:00:10;3.00;;;1.08;;
13114;SDS011;6623;52.120;8.660;2023-07-13T06:02:36;1.77;;;1.10;;
13114;SDS011;6623;52.120;8.660;2023-07-13T06:05:02;2.55;;;1.00;;
13114;SDS011;6623;52.120;8.660;2023-07-13T06:07:27;3.97;;;1.20;;
13114;SDS011;6623;52.120;8.660;2023-07-13T06:09:53;3.80;;;1.10;;
13114;SDS011;6623;52.120;8.660;2023-07-13T06:12:18;3.22;;;1.17;;
13114;SDS011;6623;52.120;8.660;2023-07-13T06:14:44;2.15;;;1.00;;
13114;SDS011;6623;52.120;8.660;2023-07-13T06:17:09;4.38;;;1.25;;
13114;SDS011;6623;52.120;8.660;2023-07-13T06:19:35;2.38;;;1.13;;
13114;SDS011;6623;52.120;8.660;2023-07-13T06:22:00;2.38;;;1.00;;
13114;SDS011;6623;52.120;8.660;2023-07-13T06:24:26;2.75;;;1.05;;
13114;SDS011;6623;52.120;8.660;2023-07-13T06:26:51;2.05;;;1.10;;
13114;SDS011;6623;52.120;8.660;2023-07-13T06:29:17;4.15;;;1.42;;
13114;SDS011;6623;52.120;8.660;2023-07-13T06:31:42;6.55;;;1.30;;
13114;SDS011;6623;52.120;8.660;2023-07-13T06:34:08;3.38;;;1.50;;
13114;SDS011;6623;52.120;8.660;2023-07-13T06:36:33;3.78;;;1.45;;
13114;SDS011;6623;52.120;8.660;2023-07-13T06:39:01;4.55;;;1.60;;
13114;SDS011;6623;52.120;8.660;2023-07-13T06:41:27;3.63;;;1.40;;
13114;SDS011;6623;52.120;8.660;2023-07-13T06:43:52;5.22;;;1.60;;
13114;SDS011;6623;52.120;8.660;2023-07-13T06:46:20;8.20;;;1.58;;
13114;SDS011;6623;52.120;8.660;2023-07-13T06:48:47;4.63;;;1.70;;
13114;SDS011;6623;52.120;8.660;2023-07-13T06:51:12;5.72;;;1.52;;
13114;SDS011;6623;52.120;8.660;2023-07-13T06:53:38;4.85;;;1.50;;
13114;SDS011;6623;52.120;8.660;2023-07-13T06:56:04;6.05;;;1.50;;
13114;SDS011;6623;52.120;8.660;2023-07-13T06:58:30;4.82;;;1.60;;
13114;SDS011;6623;52.120;8.660;2023-07-13T07:00:56;5.97;;;1.65;;
13114;SDS011;6623;52.120;8.660;2023-07-13T07:03:21;4.63;;;1.65;;
13114;SDS011;6623;52.120;8.660;2023-07-13T07:05:47;4.63;;;1.70;;
13114;SDS011;6623;52.120;8.660;2023-07-13T07:08:12;9.85;;;1.90;;
13114;SDS011;6623;52.120;8.660;2023-07-13T07:10:39;6.15;;;1.90;;
13114;SDS011;6623;52.120;8.660;2023-07-13T07:13:05;5.78;;;2.10;;
13114;SDS011;6623;52.120;8.660;2023-07-13T07:15:30;7.60;;;1.90;;
13114;SDS011;6623;52.120;8.660;2023-07-13T07:17:56;9.32;;;1.95;;
13114;SDS011;6623;52.120;8.660;2023-07-13T07:20:21;5.90;;;1.70;;
13114;SDS011;6623;52.120;8.660;2023-07-13T07:22:47;8.38;;;1.73;;
13114;SDS011;6623;52.120;8.660;2023-07-13T07:25:13;6.10;;;2.10;;
13114;SDS011;6623;52.120;8.660;2023-07-13T07:27:39;7.97;;;1.65;;
13114;SDS011;6623;52.120;8.660;2023-07-13T07:30:04;7.65;;;1.90;;
13114;SDS011;6623;52.120;8.660;2023-07-13T07:32:30;4.63;;;1.60;;
13114;SDS011;6623;52.120;8.660;2023-07-13T07:34:57;7.82;;;2.08;;
13114;SDS011;6623;52.120;8.660;2023-07-13T07:37:23;5.57;;;1.67;;
13114;SDS011;6623;52.120;8.660;2023-07-13T07:39:48;5.28;;;1.90;;
13114;SDS011;6623;52.120;8.660;2023-07-13T07:42:14;7.97;;;1.70;;
13114;SDS011;6623;52.120;8.660;2023-07-13T07:44:41;7.35;;;1.80;;
13114;SDS011;6623;52.120;8.660;2023-07-13T07:47:07;8.57;;;1.80;;
13114;SDS011;6623;52.120;8.660;2023-07-13T07:49:33;8.57;;;2.17;;
13114;SDS011;6623;52.120;8.660;2023-07-13T07:51:59;4.70;;;1.75;;
13114;SDS011;6623;52.120;8.660;2023-07-13T07:54:25;5.80;;;2.00;;
13114;SDS011;6623;52.120;8.660;2023-07-13T07:56:51;6.93;;;1.83;;
13114;SDS011;6623;52.120;8.660;2023-07-13T07:59:16;8.02;;;2.05;;
13114;SDS011;6623;52.120;8.660;2023-07-13T08:01:42;7.20;;;2.03;;
13114;SDS011;6623;52.120;8.660;2023-07-13T08:04:08;9.20;;;1.80;;
13114;SDS011;6623;52.120;8.660;2023-07-13T08:06:34;6.93;;;1.80;;
13114;SDS011;6623;52.120;8.660;2023-07-13T08:09:00;6.05;;;1.80;;
13114;SDS011;6623;52.120;8.660;2023-07-13T08:11:27;5.25;;;1.80;;
13114;SDS011;6623;52.120;8.660;2023-07-13T08:13:52;8.07;;;1.85;;
13114;SDS011;6623;52.120;8.660;2023-07-13T08:16:18;6.28;;;1.80;;
13114;SDS011;6623;52.120;8.660;2023-07-13T08:18:43;4.43;;;1.55;;
13114;SDS011;6623;52.120;8.660;2023-07-13T08:21:09;5.28;;;1.73;;
13114;SDS011;6623;52.120;8.660;2023-07-13T08:23:35;5.57;;;1.80;;
13114;SDS011;6623;52.120;8.660;2023-07-13T08:26:01;4.93;;;1.80;;
13114;SDS011;6623;52.120;8.660;2023-07-13T08:28:28;5.20;;;1.92;;
13114;SDS011;6623;52.120;8.660;2023-07-13T08:30:53;5.72;;;1.90;;
13114;SDS011;6623;52.120;8.660;2023-07-13T08:33:19;7.32;;;1.60;;
13114;SDS011;6623;52.120;8.660;2023-07-13T08:35:46;7.28;;;1.70;;
13114;SDS011;6623;52.120;8.660;2023-07-13T08:38:13;5.60;;;1.90;;
13114;SDS011;6623;52.120;8.660;2023-07-13T08:40:39;5.35;;;1.50;;
13114;SDS011;6623;52.120;8.660;2023-07-13T08:43:07;7.57;;;2.00;;
13114;SDS011;6623;52.120;8.660;2023-07-13T08:45:57;6.35;;;1.50;;
13114;SDS011;6623;52.120;8.660;2023-07-13T08:48:38;4.28;;;1.52;;
13114;SDS011;6623;52.120;8.660;2023-07-13T08:51:23;6.85;;;2.00;;
13114;SDS011;6623;52.120;8.660;2023-07-13T08:54:05;6.78;;;1.75;;
13114;SDS011;6623;52.120;8.660;2023-07-13T08:56:46;4.57;;;1.50;;
13114;SDS011;6623;52.120;8.660;2023-07-13T08:59:15;7.95;;;1.60;;
13114;SDS011;6623;52.120;8.660;2023-07-13T09:04:19;8.98;;;1.73;;
13114;SDS011;6623;52.120;8.660;2023-07-13T09:09:23;4.90;;;1.50;;
13114;SDS011;6623;52.120;8.660;2023-07-13T09:14:52;3.38;;;1.75;;
13114;SDS011;6623;52.120;8.660;2023-07-13T09:17:22;7.65;;;1.73;;
13114;SDS011;6623;52.120;8.660;2023-07-13T09:19:56;4.70;;;1.30;;
13114;SDS011;6623;52.120;8.660;2023-07-13T09:22:29;6.22;;;1.67;;
13114;SDS011;6623;52.120;8.660;2023-07-13T09:25:05;5.38;;;1.60;;
13114;SDS011;6623;52.120;8.660;2023-07-13T09:27:52;4.25;;;1.50;;
13114;SDS011;6623;52.120;8.660;2023-07-13T09:30:27;5.72;;;1.52;;
13114;SDS011;6623;52.120;8.660;2023-07-13T09:32:58;5.82;;;1.48;;
13114;SDS011;6623;52.120;8.660;2023-07-13T09:35:28;5.00;;;1.60;;
13114;SDS011;6623;52.120;8.660;2023-07-13T09:46:25;2.90;;;1.48;;
13114;SDS011;6623;52.120;8.660;2023-07-13T09:48:51;4.78;;;1.50;;
13114;SDS011;6623;52.120;8.660;2023-07-13T09:51:17;6.25;;;1.35;;
13114;SDS011;6623;52.120;8.660;2023-07-13T09:53:43;6.07;;;1.60;;
13114;SDS011;6623;52.120;8.660;2023-07-13T09:56:19;3.28;;;1.45;;
13114;SDS011;6623;52.120;8.660;2023-07-13T09:58:46;5.80;;;1.85;;
13114;SDS011;6623;52.120;8.660;2023-07-13T10:01:11;4.07;;;1.70;;
13114;SDS011;6623;52.120;8.660;2023-07-13T10:03:37;4.15;;;1.50;;
13114;SDS011;6623;52.120;8.660;2023-07-13T10:06:15;4.55;;;2.05;;
13114;SDS011;6623;52.120;8.660;2023-07-13T10:08:43;3.97;;;1.98;;
13114;SDS011;6623;52.120;8.660;2023-07-13T10:11:11;4.95;;;1.83;;
13114;SDS011;6623;52.120;8.660;2023-07-13T10:16:41;6.35;;;2.20;;
13114;SDS011;6623;52.120;8.660;2023-07-13T10:19:25;3.47;;;2.10;;
13114;SDS011;6623;52.120;8.660;2023-07-13T10:21:54;5.18;;;2.35;;
13114;SDS011;6623;52.120;8.660;2023-07-13T10:24:22;3.83;;;1.77;;
13114;SDS011;6623;52.120;8.660;2023-07-13T10:29:38;4.50;;;1.83;;
13114;SDS011;6623;52.120;8.660;2023-07-13T10:32:09;4.32;;;1.77;;
13114;SDS011;6623;52.120;8.660;2023-07-13T10:34:36;5.18;;;1.63;;
13114;SDS011;6623;52.120;8.660;2023-07-13T10:37:02;4.55;;;1.70;;
13114;SDS011;6623;52.120;8.660;2023-07-13T10:39:30;3.35;;;1.63;;
13114;SDS011;6623;52.120;8.660;2023-07-13T10:41:57;4.45;;;1.85;;
13114;SDS011;6623;52.120;8.660;2023-07-13T10:44:30;8.73;;;2.45;;
13114;SDS011;6623;52.120;8.660;2023-07-13T10:49:31;7.00;;;2.10;;
13114;SDS011;6623;52.120;8.660;2023-07-13T10:51:58;4.60;;;1.77;;
13114;SDS011;6623;52.120;8.660;2023-07-13T10:57:16;5.22;;;1.48;;
13114;SDS011;6623;52.120;8.660;2023-07-13T10:59:48;3.22;;;1.83;;
13114;SDS011;6623;52.120;8.660;2023-07-13T11:02:34;5.60;;;2.05;;
13114;SDS011;6623;52.120;8.660;2023-07-13T11:05:01;5.15;;;2.28;;
13114;SDS011;6623;52.120;8.660;2023-07-13T11:08:13;6.05;;;2.40;;
13114;SDS011;6623;52.120;8.660;2023-07-13T11:11:02;4.05;;;2.20;;
13114;SDS011;6623;52.120;8.660;2023-07-13T11:18:44;4.65;;;2.25;;
13114;SDS011;6623;52.120;8.660;2023-07-13T11:21:21;4.78;;;2.05;;
13114;SDS011;6623;52.120;8.660;2023-07-13T11:23:55;6.72;;;1.70;;
13114;SDS011;6623;52.120;8.660;2023-07-13T11:26:43;5.07;;;2.25;;
13114;SDS011;6623;52.120;8.660;2023-07-13T11:29:27;5.38;;;1.80;;
13114;SDS011;6623;52.120;8.660;2023-07-13T11:32:02;4.72;;;1.85;;
13114;SDS011;6623;52.120;8.660;2023-07-13T11:34:48;8.73;;;2.17;;
13114;SDS011;6623;52.120;8.660;2023-07-13T11:37:15;4.05;;;1.95;;
13114;SDS011;6623;52.120;8.660;2023-07-13T11:39:43;4.55;;;1.88;;
13114;SDS011;6623;52.120;8.660;2023-07-13T11:42:15;6.90;;;1.77;;
13114;SDS011;6623;52.120;8.660;2023-07-13T11:44:43;7.97;;;2.50;;
13114;SDS011;6623;52.120;8.660;2023-07-13T11:47:17;6.70;;;2.17;;
13114;SDS011;6623;52.120;8.660;2023-07-13T11:49:49;4.88;;;1.85;;
13114;SDS011;6623;52.120;8.660;2023-07-13T11:52:18;5.20;;;2.20;;
13114;SDS011;6623;52.120;8.660;2023-07-13T11:54:54;3.88;;;1.83;;
13114;SDS011;6623;52.120;8.660;2023-07-13T11:59:53;4.95;;;2.08;;
13114;SDS011;6623;52.120;8.660;2023-07-13T12:02:32;4.00;;;2.50;;
13114;SDS011;6623;52.120;8.660;2023-07-13T12:05:01;5.85;;;2.38;;
13114;SDS011;6623;52.120;8.660;2023-07-13T12:07:29;7.75;;;2.35;;
13114;SDS011;6623;52.120;8.660;2023-07-13T12:10:03;5.75;;;2.63;;
13114;SDS011;6623;52.120;8.660;2023-07-13T12:13:02;4.45;;;2.40;;
13114;SDS011;6623;52.120;8.660;2023-07-13T12:15:43;6.28;;;2.65;;
13114;SDS011;6623;52.120;8.660;2023-07-13T12:18:28;8.57;;;2.55;;
13114;SDS011;6623;52.120;8.660;2023-07-13T12:20:56;4.50;;;2.50;;
13114;SDS011;6623;52.120;8.660;2023-07-13T12:23:25;3.17;;;1.98;;
13114;SDS011;6623;52.120;8.660;2023-07-13T12:25:55;5.25;;;2.55;;
13114;SDS011;6623;52.120;8.660;2023-07-13T12:31:30;5.80;;;2.88;;
13114;SDS011;6623;52.120;8.660;2023-07-13T12:34:05;3.72;;;2.20;;
13114;SDS011;6623;52.120;8.660;2023-07-13T12:36:34;5.95;;;2.15;;
13114;SDS011;6623;52.120;8.660;2023-07-13T12:39:11;6.50;;;2.15;;
13114;SDS011;6623;52.120;8.660;2023-07-13T12:41:39;15.68;;;2.30;;
13114;SDS011;6623;52.120;8.660;2023-07-13T12:44:08;7.95;;;2.20;;
13114;SDS011;6623;52.120;8.660;2023-07-13T12:46:36;5.30;;;2.30;;
13114;SDS011;6623;52.120;8.660;2023-07-13T12:49:05;11.35;;;2.58;;
13114;SDS011;6623;52.120;8.660;2023-07-13T12:51:32;4.72;;;1.90;;
13114;SDS011;6623;52.120;8.660;2023-07-13T12:53:59;4.68;;;2.13;;
13114;SDS011;6623;52.120;8.660;2023-07-13T12:56:35;3.92;;;2.03;;
13114;SDS011;6623;52.120;8.660;2023-07-13T12:59:04;4.10;;;1.90;;
13114;SDS011;6623;52.120;8.660;2023-07-13T13:01:32;5.03;;;2.10;;
13114;SDS011;6623;52.120;8.660;2023-07-13T13:04:03;4.30;;;1.80;;
13114;SDS011;6623;52.120;8.660;2023-07-13T13:06:31;3.42;;;1.90;;
13114;SDS011;6623;52.120;8.660;2023-07-13T13:08:57;2.90;;;1.60;;
13114;SDS011;6623;52.120;8.660;2023-07-13T13:11:24;3.50;;;1.55;;
13114;SDS011;6623;52.120;8.660;2023-07-13T13:13:52;4.53;;;1.77;;
13114;SDS011;6623;52.120;8.660;2023-07-13T13:16:20;3.00;;;1.58;;
13114;SDS011;6623;52.120;8.660;2023-07-13T13:18:47;4.28;;;1.65;;
13114;SDS011;6623;52.120;8.660;2023-07-13T13:21:15;4.28;;;1.70;;
13114;SDS011;6623;52.120;8.660;2023-07-13T13:23:41;3.80;;;1.52;;
13114;SDS011;6623;52.120;8.660;2023-07-13T13:26:10;6.93;;;1.83;;
13114;SDS011;6623;52.120;8.660;2023-07-13T13:28:36;4.20;;;1.85;;
13114;SDS011;6623;52.120;8.660;2023-07-13T13:31:02;5.55;;;1.60;;
13114;SDS011;6623;52.120;8.660;2023-07-13T13:33:28;4.10;;;1.63;;
13114;SDS011;6623;52.120;8.660;2023-07-13T13:35:55;6.35;;;1.50;;
13114;SDS011;6623;52.120;8.660;2023-07-13T13:38:23;4.82;;;1.40;;
13114;SDS011;6623;52.120;8.660;2023-07-13T13:40:50;3.95;;;1.48;;
13114;SDS011;6623;52.120;8.660;2023-07-13T13:43:20;3.88;;;1.60;;
13114;SDS011;6623;52.120;8.660;2023-07-13T13:45:51;2.17;;;1.30;;
13114;SDS011;6623;52.120;8.660;2023-07-13T13:48:19;2.78;;;1.40;;
13114;SDS011;6623;52.120;8.660;2023-07-13T13:50:55;2.25;;;1.30;;
13114;SDS011;6623;52.120;8.660;2023-07-13T13:53:21;4.43;;;1.52;;
13114;SDS011;6623;52.120;8.660;2023-07-13T13:55:48;3.25;;;1.17;;
13114;SDS011;6623;52.120;8.660;2023-07-13T13:58:14;3.60;;;1.17;;
13114;SDS011;6623;52.120;8.660;2023-07-13T14:00:40;2.17;;;1.25;;
13114;SDS011;6623;52.120;8.660;2023-07-13T14:03:08;2.55;;;1.10;;
13114;SDS011;6623;52.120;8.660;2023-07-13T14:05:46;2.67;;;1.30;;
13114;SDS011;6623;52.120;8.660;2023-07-13T14:08:17;2.33;;;1.23;;
13114;SDS011;6623;52.120;8.660;2023-07-13T14:10:46;4.65;;;1.23;;
13114;SDS011;6623;52.120;8.660;2023-07-13T14:13:16;2.60;;;1.35;;
13114;SDS011;6623;52.120;8.660;2023-07-13T14:15:45;1.40;;;1.05;;
13114;SDS011;6623;52.120;8.660;2023-07-13T14:18:11;2.05;;;1.30;;
13114;SDS011;6623;52.120;8.660;2023-07-13T14:20:37;2.63;;;1.23;;
13114;SDS011;6623;52.120;8.660;2023-07-13T14:23:02;3.80;;;1.27;;
13114;SDS011;6623;52.120;8.660;2023-07-13T14:25:28;5.15;;;1.48;;
13114;SDS011;6623;52.120;8.660;2023-07-13T14:27:55;3.25;;;1.40;;
13114;SDS011;6623;52.120;8.660;2023-07-13T14:30:24;2.50;;;1.38;;
13114;SDS011;6623;52.120;8.660;2023-07-13T14:32:50;2.20;;;1.35;;
13114;SDS011;6623;52.120;8.660;2023-07-13T14:35:18;2.58;;;1.25;;
13114;SDS011;6623;52.120;8.660;2023-07-13T14:37:45;2.97;;;1.55;;
13114;SDS011;6623;52.120;8.660;2023-07-13T14:40:12;2.28;;;1.40;;
13114;SDS011;6623;52.120;8.660;2023-07-13T14:42:38;2.28;;;1.13;;
13114;SDS011;6623;52.120;8.660;2023-07-13T14:45:04;4.50;;;1.60;;
13114;SDS011;6623;52.120;8.660;2023-07-13T14:47:30;2.50;;;1.27;;
13114;SDS011;6623;52.120;8.660;2023-07-13T14:49:56;2.55;;;1.20;;
13114;SDS011;6623;52.120;8.660;2023-07-13T14:52:22;2.47;;;1.17;;
13114;SDS011;6623;52.120;8.660;2023-07-13T14:54:49;1.80;;;1.25;;
13114;SDS011;6623;52.120;8.660;2023-07-13T14:57:17;1.65;;;0.98;;
13114;SDS011;6623;52.120;8.660;2023-07-13T14:59:44;1.30;;;1.10;;
13114;SDS011;6623;52.120;8.660;2023-07-13T15:04:56;2.08;;;1.20;;
13114;SDS011;6623;52.120;8.660;2023-07-13T15:07:22;3.13;;;1.30;;
13114;SDS011;6623;52.120;8.660;2023-07-13T15:09:48;3.13;;;1.30;;
13114;SDS011;6623;52.120;8.660;2023-07-13T15:12:14;2.85;;;1.58;;
13114;SDS011;6623;52.120;8.660;2023-07-13T15:14:39;1.50;;;1.10;;
13114;SDS011;6623;52.120;8.660;2023-07-13T15:17:08;3.50;;;1.30;;
13114;SDS011;6623;52.120;8.660;2023-07-13T15:19:48;1.85;;;1.20;;
13114;SDS011;6623;52.120;8.660;2023-07-13T15:22:14;2.20;;;1.20;;
13114;SDS011;6623;52.120;8.660;2023-07-13T15:24:40;2.03;;;1.20;;
13114;SDS011;6623;52.120;8.660;2023-07-13T15:27:09;1.98;;;1.00;;
13114;SDS011;6623;52.120;8.660;2023-07-13T15:29:37;1.70;;;1.20;;
13114;SDS011;6623;52.120;8.660;2023-07-13T15:32:02;1.60;;;0.88;;
13114;SDS011;6623;52.120;8.660;2023-07-13T15:34:28;1.85;;;1.10;;
13114;SDS011;6623;52.120;8.660;2023-07-13T15:36:53;2.33;;;1.10;;
13114;SDS011;6623;52.120;8.660;2023-07-13T15:39:19;1.83;;;1.20;;
13114;SDS011;6623;52.120;8.660;2023-07-13T15:41:45;2.25;;;1.20;;
13114;SDS011;6623;52.120;8.660;2023-07-13T15:44:20;1.77;;;1.10;;
13114;SDS011;6623;52.120;8.660;2023-07-13T15:46:57;2.65;;;1.20;;
13114;SDS011;6623;52.120;8.660;2023-07-13T15:49:25;2.53;;;1.40;;